Terminal Aerodrome Forecast
Issued by NWS Sterling, VA

Current Version | Previous Version | Graphics & Text | Print | Product List | Glossary On
Versions: 1 2 3 4 5 6 7 8 9 10 11 12 13 14 15 16 17 18 19 20 21 22 23 24 25
000
FTUS41 KLWX 211100
TAFDCA
TAF
KDCA 211128Z 2112/2212 00000KT P6SM FEW030 SCT100 SCT250
     FM211300 00000KT P6SM SCT015 BKN080
     FM211700 VRB03KT P6SM FEW030 SCT110
     FM211800 VRB03KT P6SM VCTS FEW030CB SCT120
     FM220000 22004KT P6SM SCT030 BKN200
     FM220400 00000KT P6SM BKN110=

USA.gov is the U.S. government's official web portal to all federal, state and local government web resources and services.